ARCADIAN GRIT & GRAVEL
Saturday, May 19, 2012
Results by Race Services Company


Men Pro/Elite

Place No. Name Age Sponsor Time
1 1 Jorden Wakeley 22 Einstein Racing 1:28:51
2 13 John Cowan 28 North Country Cycle Sport 1:32:38
3 14 Jeff Craven 33 City Bike Shop 1:39:23
4 22 Ron Sanborn 49 Einstein Racing 1:41:14
5 23 Ty Schmidt 35 Einstein Racing 1:41:56
6 15 Shawn Davison 32 Farm Team Racing 1:42:24
7 24 Alex Schultz 18 Rbs 1:45:17
8 17 Jeffrey Jacobi 35 Founders/alger Racing 1:45:33
9 20 Chris Kushman 38 Einstein Racing 1:46:24
10 6 Tyler Kelly 20 Brick Wheels 1:48:20
11 4 Jeff Haney 48 Bissell/abg 1:48:38
12 21 Jason Lowetz 34 1:49:29
13 7 Charlie Brecheisen 39 Twisted Stone/lattitude 45 1:56:54
14 18 Daniel Kaupas 30 Brick Heads 2:21:41


Women Pro/Elite

Place No. Name Age Sponsor Time
1 10 Susan Stephens 35 1:45:32
2 19 Kati Krikke 32 Freewheeler Racing 1:56:45
3 27 Laura Webb 51 Webbcorp 2:05:37
4 8 Zandra Hudson 31 Mtblife-Soul Cycles 2:10:07
5 26 Chelsea Strate 27 Einstein Racing 2:13:51


Men 29 & Under

Place No. Name Age Sponsor Time
1 146 Mike Okma 29 Hagerty 1:45:43
2 110 Jeremy Karel 29 Founders / Alger Racing 1:45:53
3 143 Jonathan Nesburg 20 1:48:57
4 88 Jake Grevenstuk 29 1:50:59
5 65 Cameron Brown 23 1:56:49
6 105 Mitchell Janicki 26 Ls Racing 1:57:58
7 177 Ed Stein 26 L.S. Racing 1:58:31
8 113 Brian Klomp 25 Dte 1:59:38
9 73 Joshua Courtright 22 2:08:31
10 145 Dylan North 21 2:12:58
11 66 Greg Brown 20 Priority Health 2:16:57
12 7170 Tobi Tungl 29 2:17:55
13 7196 Matt Hodges 28 Epichappens Race Team 2:19:40
14 68 Kurt Brown 20 Iceman 2:34:03
15 172 Mark(ii) Sholtis 22 Dreamliner 3:09:53
16 160 Kirk Roerig 22 Tnr 3:22:28


Women 29 & Under

Place No. Name Age Sponsor Time
1 166 Emily Savickis 29 Gtmtba 2:13:29
2 155 Pauline Portes 13 Wolverine Sports Club 2:33:12


Men 30-39

Place No. Name Age Sponsor Time
1 61 Ken Blakey-Shell 36 The Outpost 1:42:29
2 100 Patrick Hornacek 38 Spin-To-Win 1:45:39
3 98 Joshua Hogeterp 33 Founders/alger Racing 1:45:40
4 7188 Jeb Stone 33 1:45:47
5 156 Matt Remelts 36 Founders/alger Racing 1:50:06
6 62 Tim Bottrell 38 Einstein Racing 1:50:31
7 162 Jason Rohraff 31 Einstein Racing 1:51:08
8 69 Marc Brunette 32 Epichappens Race Team 1:51:47
9 163 Glen Ruczynski 34 City Bike Tc 1:53:04
10 139 Dean Murphey 31 City Bike Shop 1:54:17
11 94 Chad Haskin 38 Spin-To-Win 1:54:33
12 109 Ben Kapenga 34 Freewheeler Bike Shop 1:55:51
13 7178 Jeff Wentzloff 36 Gtoc 1:57:17
14 79 Jeremy Flynn 35 1:58:04
15 7198 Andy Brown 32 Mtblife-Soul Cycles 1:58:48
16 7149 Scott Thenikl 38 Founders Racing 1:59:01
17 85 Dan Geerlings 39 1:59:01
18 114 Scott Labonte 39 1:59:04
19 111 Mark King 35 Auxiliary Advertising And Design 2:00:21
20 87 Adam Granger 33 Rusty Cranks 2:01:09
21 136 Robert Millen 38 2:02:19
22 56 Jeremiah Avery 30 Rusty Cranks 2:03:46
23 104 Yarro Ireland 37 Leon Hand-Crafted Speakers 2:04:10
24 7186 Jakub Malarz 33 Tri-City Cyclists Race Team 2:05:03
25 54 Vince Anila 37 Racing Greyhounds 2:05:30
26 152 John Paul 30 2:08:23
27 106 Ryan Jarosz 36 2:10:25
28 176 John Slater 32 Dte 2:12:14
29 84 Michael Gaylord 36 2:13:15
30 128 Peter Maiers 39 2:18:09
31 86 Jeff Gordon 35 2:20:30
32 7190 Chris Calhoun 31 Bike Lab 2:21:05
33 131 Joe McKenzie 30 2:21:05
34 51 Drew Alpers 36 2:21:14
35 149 Luke Osborn 35 2:25:43
36 164 Joe Rumney 31 2:27:07
37 107 Jake Kaberle 39 Boone's Long Lake Inn 2:36:21
38 116 David Le Clear 36 2:44:41
39 141 Paul Nederveld 35 Fusion Cycling P/b Livestrong 2:56:01
40 175 Dave Slater 36 2:59:36


Women 30-39

Place No. Name Age Sponsor Time
1 7200 Heather Kettelhonn 39 Tcc 2:04:09
2 118 Bobbie Liegl 37 Twisted Stone/latitude 45 2:08:50
3 60 Mary Bereza 34 Spin-To-Win 2:25:09


Men 40-49

Place No. Name Age Sponsor Time
1 7180 Tom White 46 City Bike Shop! 1:43:18
2 7191 Doug Wipperman 47 Boones Long Love 1:45:00
3 123 Scott Luca 45 Einstein Cycle 1:45:08
4 7183 Jeff Zeller 42 Quiring Cycles 1:45:43
5 7187 James Gomez 45 Cross Country Cycle/q 1:46:18
6 7173 Dave Walston 40 Gtmba 1:50:39
7 7195 Mike Senters 41 The Outpost 1:51:48
8 63 Chuck Brenner 41 Wsi / Team Active Racing 1:53:59
9 157 Bertram Reynolds 46 Tnr 1:54:15
10 173 Scott Sikkema 46 Freewheeler Racing 1:54:33
11 154 Fabrice Portes 45 Wolverine Sports Club 1:54:34
12 80 Rugg Foltz 49 Freewheeler Bike Shop 1:56:01
13 7171 Tom Turner 43 1:56:12
14 148 Matthew Oppermann 45 Racing For Mom 1:56:37
15 117 Jon Lebarre 46 1:58:59
16 83 Jeff Galsterer 40 Einstein Racing 1:59:56
17 137 Rob Mitzel 42 2:00:22
18 7175 Richard Watson 48 Fusion Cycling Team 2:01:11
19 169 John Sekendy 42 2:01:55
20 70 Gary Church 48 2:04:09
21 127 Jason Mahokey 40 Xxc Magazine/xxcmag.Com 2:04:12
22 7147 James Taylor 46 2:07:00
23 103 Steve Insley 41 Off Camber Racing 2:08:22
24 135 Dave Millar 47 2:09:32
25 7193 Jim Hills 48 City Bike Shop 2:12:19
26 7197 Kristopher Sands 40 McClain 2:13:43
27 7174 Andrew Wasco 47 2:14:02
28 57 Kirk Bankes 49 2:14:11
29 74 Chad Craker 42 2:15:37
30 165 Greg Ryan 45 2:17:43
31 93 Robert Hall 45 City Bike 2:19:24
32 7179 Kevin Wethy 46 2:24:09
33 7169 Darren Tillbrooke 45 Club Leadout 2:26:00
34 124 John Lugauer 41 2:32:43
35 174 Keith Skidmore 49 2:37:47
36 81 Brian Forhan 43 2:38:26
37 158 Merrick Richardson 45 Fattires 3:08:00


Women 40-49

Place No. Name Age Sponsor Time
1 7148 Marnie Tencate 45 Founders/alger 2:02:19
2 7181 Sara Williams 40 Wsi / Team Active Racing 2:15:39
3 91 Valerie Hadrot-Portes 47 Wolverine Sports Club 2:33:13


Men 50 & Over

Place No. Name Age Sponsor Time
1 126 David Maclean 52 Shoreline Cycling Club 1:42:29
2 7176 Craig Webb 51 Hagerty Cycling 1:44:06
3 112 Jack Kline 62 Epichappens Race Team 1:47:21
4 7145 Clete Swanson 53 1:50:39
5 75 Tim Curtis 52 Founders/alger Racing 1:51:26
6 7172 Mike Vanhouten 50 Bissell/abg 1:53:48
7 144 Craig North 56 Aavc 1:59:07
8 129 Jerry Mathias 63 Tnr 1:59:44
9 161 Scott Roerig 52 Tnr 2:01:07
10 92 Martin Hall 53 Founders Alger Racing 2:02:18
11 142 Dave Nesburg 50 2:02:19
12 67 Iceman Brown 55 2:04:07
13 7185 Gregory Worsnop 57 Kalamazoo Nordic 2:05:46
14 96 David Heim Jr 53 City Bike Shop 2:06:06
15 50 Mark Allen 50 2:06:13
16 55 Duane Archambo 50 Boones Long Lake Inn 2:08:21
17 151 Dan L Packer 58 City Bike Shop 2:08:21
18 167 Rob Schell 56 2:11:03
19 97 Devin L. Hill 51 Boones Long Lake Inn 2:12:01
20 102 Doug Huyser 54 Speed Merchants 2:16:54
21 134 Albert Mickalich 52 The Flyin Rhinos 2:17:14
22 59 Richard Bazzy 57 2:17:21
23 7137 George Sveda 51 2:21:00
24 180 Roger Sullivan 57 2:21:04
25 170 Kurt Shields 53 2:21:07
26 120 Scott Lint 51 2:21:23
27 178 Ron Suciu 53 2:22:11
28 133 Steve Mentzer 56 2:26:15
29 101 Mark Horsley 52 2:30:59
30 72 Greg Cook 63 2:32:56
31 7182 Randy Winans 53 2:34:03
32 7194 Jeff Betz 67 Trailhead Bike Shop 2:34:14
33 7177 Mike Weingate 56 2:35:08
34 171 Mark Sholtis 50 Dreamliner 2:44:06
35 119 Jed Lindstrom 53 2:44:35


Women 50 & Over

Place No. Name Age Sponsor Time
1 89 Janet Grimm 52 Dark Horse 2:27:18
2 7189 Jan Toscano 57 2:34:49
3 76 Stephanie Dow 50 Boones Long Lake Inn 2:43:17


Single Speed

Place No. Name Age Sponsor Time
1 53 Stephen Andriese 46 Hagerty Racing 1:43:38
2 150 Dan Packer 34 City Bike Shop 1:50:59
3 7199 Ryan Olthouse 33 Hell Yes/velocity 1:52:36
4 168 Michael Seaman 47 Specialized 1:55:11
5 7150 David Tietz 49 1:57:58
6 90 Peter Gurney 37 Twisted Stone/latitude 45 2:01:08
7 78 Brian Ernst 44 Tnr 2:02:52
8 52 Andy Amstutz 42 2:13:22
9 82 Joseph Frederick 20 2:22:16
10 95 Grant Hedley 29 Right Brain Brewery 3:04:42


Tandems

Place No. Name Age Sponsor Time
1 7192 Scott Quiring 37 Quiring Cycles Llc 2:03:11
2 28 Bryan/vita Sheffield/morse 49 2:19:32
3 29 Michael/don Neimi/wood 44 Cannondale Midwest Racing 3:07:54